Time;durP1;ratioP1;P1;durP2;ratioP2;P2;SDS_P1;SDS_P2;PMS_P1;PMS_P2;Temp;Humidity;BMP_temperature;BMP_pressure;BME280_temperature;BME280_humidity;BME280_pressure;Samples;Min_cycle;Max_cycle;Signal;HPM_P1;HPM_P2
2023/08/10 00:01:12;;;;;;;6.20;5.60;;;;;;;16.72;70.65;101041.30;1708423;80;21244;-56
2023/08/10 00:06:48;;;;;;;8.45;5.75;;;;;;;16.66;70.74;101037.96;1708204;80;21263;-55
2023/08/10 00:12:24;;;;;;;5.85;5.10;;;;;;;16.64;70.90;101039.55;1700785;78;21252;-57
2023/08/10 00:17:59;;;;;;;8.00;5.75;;;;;;;16.61;71.03;101039.95;1663268;80;21281;-56
2023/08/10 00:26:04;;;;;;;9.45;5.83;;;;;;;16.55;71.12;101042.65;1662843;81;21294;-57
2023/08/10 00:31:39;;;;;;;7.10;5.28;;;;;;;16.51;71.26;101039.97;1673289;80;21887;-57
2023/08/10 00:34:45;;;;;;;7.00;5.72;;;;;;;16.50;71.31;101043.77;1669438;80;21292;-56
2023/08/10 00:40:19;;;;;;;6.83;6.10;;;;;;;16.39;71.25;101032.69;1675796;79;21348;-56
2023/08/10 00:45:54;;;;;;;6.40;5.75;;;;;;;16.37;71.56;101034.78;1695800;80;21269;-57
2023/08/10 00:51:28;;;;;;;6.53;5.92;;;;;;;16.37;71.78;101041.69;1704263;79;21296;-58
2023/08/10 00:57:05;;;;;;;8.55;5.67;;;;;;;16.38;71.97;101040.63;1669852;80;21482;-58
2023/08/10 01:00:11;;;;;;;7.95;5.53;;;;;;;16.40;72.01;101044.06;1699162;81;21288;-56
2023/08/10 01:08:26;;;;;;;6.75;5.78;;;;;;;16.32;71.94;101044.19;1700476;80;21934;-58
2023/08/10 01:11:27;;;;;;;6.65;5.87;;;;;;;16.30;71.95;101047.15;1665754;80;21213;-57
2023/08/10 01:14:28;;;;;;;9.20;6.33;;;;;;;16.27;72.00;101046.16;1705227;79;21371;-57
2023/08/10 01:17:38;;;;;;;7.58;5.95;;;;;;;16.25;72.03;101052.41;1695366;80;22183;-57
2023/08/10 01:20:44;;;;;;;8.13;6.22;;;;;;;16.21;72.06;101049.72;1701531;80;21393;-56
2023/08/10 01:23:50;;;;;;;6.80;5.87;;;;;;;16.18;72.09;101053.39;1705755;80;21410;-57
2023/08/10 01:26:56;;;;;;;7.10;5.70;;;;;;;16.13;72.12;101048.97;1709482;80;21396;-57
2023/08/10 01:32:33;;;;;;;8.55;6.10;;;;;;;16.06;72.23;101053.03;1693382;79;21444;-57
2023/08/10 01:38:09;;;;;;;7.85;5.42;;;;;;;16.03;72.38;101047.91;1704391;80;21942;-57
2023/08/10 01:41:15;;;;;;;7.60;5.92;;;;;;;16.02;72.39;101047.59;1705490;81;21407;-58
2023/08/10 01:46:50;;;;;;;10.08;6.33;;;;;;;15.98;72.59;101047.63;1711746;80;21885;-58
2023/08/10 01:52:26;;;;;;;6.47;5.87;;;;;;;15.98;72.80;101042.11;1700184;80;21273;-57
2023/08/10 01:58:01;;;;;;;8.43;6.53;;;;;;;15.94;72.80;101033.03;1711250;81;21951;-57
2023/08/10 02:03:37;;;;;;;7.05;6.22;;;;;;;15.93;73.02;101030.81;1716562;79;21300;-57
2023/08/10 02:09:13;;;;;;;7.42;6.47;;;;;;;15.89;73.15;101026.72;1677678;80;21241;-56
2023/08/10 02:12:18;;;;;;;6.75;6.10;;;;;;;15.89;73.23;101033.62;1673475;80;21265;-57
2023/08/10 02:20:22;;;;;;;6.65;5.87;;;;;;;15.91;73.54;101031.52;1711017;79;21359;-56
2023/08/10 02:23:29;;;;;;;7.62;6.15;;;;;;;15.92;73.52;101034.61;1701491;78;21215;-57
2023/08/10 02:26:35;;;;;;;6.97;5.90;;;;;;;15.93;73.54;101042.38;1659698;81;21381;-57
2023/08/10 02:29:41;;;;;;;8.65;6.53;;;;;;;15.92;73.58;101040.13;1679501;81;21861;-57
2023/08/10 02:32:31;;;;;;;8.20;6.05;;;;;;;15.90;73.55;101033.94;1674662;81;21282;-57
2023/08/10 02:35:38;;;;;;;9.68;6.35;;;;;;;15.89;73.59;101033.62;1678648;82;21460;-56
2023/08/10 02:41:14;;;;;;;8.30;6.35;;;;;;;15.88;73.74;101030.53;1673106;81;21401;-57
2023/08/10 02:46:49;;;;;;;9.00;6.05;;;;;;;15.91;73.91;101036.19;1678246;80;21427;-57
2023/08/10 02:49:56;;;;;;;10.90;5.92;;;;;;;15.92;73.96;101044.27;1676722;80;21229;-57
2023/08/10 02:55:32;;;;;;;8.45;6.00;;;;;;;15.94;73.95;101049.59;1677446;82;21441;-56
2023/08/10 02:58:38;;;;;;;7.30;6.28;;;;;;;15.96;74.00;101054.41;1672612;81;21393;-57
2023/08/10 03:04:13;;;;;;;8.15;6.10;;;;;;;15.99;74.09;101053.50;1678392;80;21190;-57
2023/08/10 03:09:50;;;;;;;7.55;6.58;;;;;;;16.03;74.20;101050.67;1680260;82;21382;-56
2023/08/10 03:12:49;;;;;;;9.00;6.53;;;;;;;16.02;74.07;101044.83;1676221;82;21273;-56
2023/08/10 03:18:24;;;;;;;7.83;6.78;;;;;;;16.01;74.19;101051.41;1682723;82;21418;-55
2023/08/10 03:21:31;;;;;;;6.83;6.12;;;;;;;16.03;74.23;101046.52;1676198;82;21771;-56
2023/08/10 03:27:08;;;;;;;8.08;6.35;;;;;;;16.09;74.37;101049.88;1683269;81;22167;-56
2023/08/10 03:32:45;;;;;;;8.15;6.65;;;;;;;16.15;74.35;101050.51;1674009;80;21259;-57
2023/08/10 03:35:44;;;;;;;7.55;6.70;;;;;;;16.18;74.35;101050.63;1676793;82;21305;-56
2023/08/10 03:38:51;;;;;;;7.95;6.28;;;;;;;16.18;74.32;101053.39;1673512;82;21304;-57
2023/08/10 03:44:23;;;;;;;7.47;6.17;;;;;;;16.25;74.54;101063.45;1678221;80;21272;-55
2023/08/10 03:47:31;;;;;;;7.58;5.95;;;;;;;16.29;74.52;101058.40;1673520;81;21260;-55
2023/08/10 03:53:07;;;;;;;7.65;6.50;;;;;;;16.35;74.55;101052.95;1673929;82;21240;-54
2023/08/10 03:58:42;;;;;;;11.83;6.12;;;;;;;16.39;74.57;101045.95;1678054;81;21801;-56
2023/08/10 04:01:39;;;;;;;9.05;6.20;;;;;;;16.44;74.61;101045.39;1638744;81;21194;-55
2023/08/10 04:07:17;;;;;;;6.67;5.97;;;;;;;16.60;74.89;101056.73;1671945;82;21907;-55
2023/08/10 04:10:22;;;;;;;7.12;6.40;;;;;;;16.68;74.98;101056.05;1665420;81;21298;-55
2023/08/10 04:15:57;;;;;;;5.92;5.33;;;;;;;16.87;75.16;101052.60;1674834;82;21242;-56
2023/08/10 04:24:02;;;;;;;7.85;5.42;;;;;;;17.10;75.20;101053.23;1680824;81;21769;-57
2023/08/10 04:27:07;;;;;;;9.15;5.95;;;;;;;17.16;75.22;101055.18;1676352;82;21235;-56
2023/08/10 04:32:44;;;;;;;7.75;5.50;;;;;;;17.32;75.27;101064.55;1702300;79;21220;-56
2023/08/10 04:38:19;;;;;;;6.17;4.75;;;;;;;17.46;75.32;101072.43;1698074;82;21258;-54
2023/08/10 04:43:56;;;;;;;6.30;4.97;;;;;;;17.62;75.44;101077.64;1690807;80;21226;-56
2023/08/10 04:49:31;;;;;;;7.17;5.58;;;;;;;17.77;75.50;101076.44;1704066;80;21265;-56
2023/08/10 04:55:05;;;;;;;7.78;5.78;;;;;;;17.94;75.61;101074.19;1702434;79;21224;-57
2023/08/10 04:58:11;;;;;;;11.35;5.60;;;;;;;18.03;75.66;101082.63;1718917;80;21230;-55
2023/08/10 05:03:47;;;;;;;8.63;4.75;;;;;;;18.26;75.79;101092.86;1685186;80;22193;-51
2023/08/10 05:06:55;;;;;;;6.62;5.20;;;;;;;18.34;75.80;101078.81;1699656;80;21835;-50
2023/08/10 05:10:00;;;;;;;10.00;6.05;;;;;;;18.45;75.81;101072.69;1701691;80;21331;-51
2023/08/10 05:13:06;;;;;;;5.78;5.08;;;;;;;18.56;75.84;101073.45;1706074;80;21340;-54
2023/08/10 05:16:14;;;;;;;8.03;5.08;;;;;;;18.66;75.83;101073.87;1703776;81;21258;-54
2023/08/10 05:19:20;;;;;;;6.87;4.55;;;;;;;18.75;75.85;101078.17;1701637;79;21810;-53
2023/08/10 05:22:26;;;;;;;10.50;4.65;;;;;;;18.86;75.92;101080.31;1686612;82;21231;-53
2023/08/10 05:28:01;;;;;;;8.08;4.35;;;;;;;19.05;75.89;101072.53;1693026;82;21298;-53
2023/08/10 05:33:37;;;;;;;5.35;3.72;;;;;;;19.23;75.89;101062.99;1676506;80;21740;-54
2023/08/10 05:36:42;;;;;;;6.97;4.15;;;;;;;19.30;75.87;101045.84;1717512;80;21196;-53
2023/08/10 05:44:46;;;;;;;9.03;4.50;;;;;;;19.57;75.79;101042.45;1706537;79;21320;-55
2023/08/10 05:50:22;;;;;;;6.08;4.10;;;;;;;19.74;75.81;101028.95;1703630;80;21252;-55
2023/08/10 05:55:58;;;;;;;6.72;4.35;;;;;;;19.92;75.79;101017.95;1703229;82;21269;-54
2023/08/10 06:04:04;;;;;;;7.22;4.03;;;;;;;20.17;75.74;101020.33;1701178;80;21733;-56
2023/08/10 06:09:40;;;;;;;6.83;4.53;;;;;;;20.36;75.73;101023.53;1705825;80;21287;-56
2023/08/10 06:15:19;;;;;;;8.10;4.22;;;;;;;20.54;75.64;101022.21;1707520;79;21414;-55
2023/08/10 06:20:53;;;;;;;10.10;4.08;;;;;;;20.71;75.62;101023.36;1689866;81;21215;-55
2023/08/10 06:26:29;;;;;;;5.92;4.15;;;;;;;20.89;75.55;101023.44;1708920;78;21238;-56
2023/08/10 06:29:35;;;;;;;5.35;4.33;;;;;;;20.95;75.49;101019.73;1702055;80;21836;-54
2023/08/10 06:32:45;;;;;;;6.80;4.15;;;;;;;21.04;75.43;101019.78;1695315;78;21244;-55
2023/08/10 06:35:29;;;;;;;8.23;3.85;;;;;;;21.13;75.34;101017.56;1660314;79;21755;-55
2023/08/10 06:41:04;;;;;;;5.42;3.80;;;;;;;21.32;75.27;101006.77;1716215;80;21706;-55
2023/08/10 06:44:10;;;;;;;6.22;3.47;;;;;;;21.42;75.21;101007.92;1657948;80;21254;-55
2023/08/10 06:47:16;;;;;;;6.17;3.98;;;;;;;21.51;75.12;101013.52;1692783;81;21224;-55
2023/08/10 06:55:17;;;;;;;8.10;4.55;;;;;;;21.80;74.91;100996.59;1704259;80;21208;-56
2023/08/10 07:00:57;;;;;;;7.03;3.62;;;;;;;21.97;74.76;100984.56;1695373;78;21235;-53
2023/08/10 07:04:05;;;;;;;13.40;4.40;;;;;;;22.05;74.61;100988.42;1702794;81;21252;-52
2023/08/10 07:07:10;;;;;;;9.08;3.98;;;;;;;22.14;74.52;100988.39;1678045;80;21575;-53
2023/08/10 07:12:45;;;;;;;7.62;3.15;;;;;;;22.32;74.27;100981.91;1699442;80;21235;-53
2023/08/10 07:18:20;;;;;;;6.17;3.00;;;;;;;22.47;74.01;100989.84;1706790;80;21777;-54
2023/08/10 07:21:26;;;;;;;8.90;3.12;;;;;;;22.55;73.91;100982.55;1702598;79;21300;-54
2023/08/10 07:27:01;;;;;;;7.87;3.33;;;;;;;22.71;73.55;100980.43;1674121;80;21267;-56
2023/08/10 07:32:37;;;;;;;5.55;2.72;;;;;;;22.85;73.28;100988.92;1701710;79;21272;-55
2023/08/10 07:38:16;;;;;;;6.78;2.83;;;;;;;23.01;73.04;100977.86;1713535;78;21239;-53
2023/08/10 07:43:50;;;;;;;6.50;3.10;;;;;;;23.12;72.63;100983.16;1665941;79;21291;-54
2023/08/10 07:46:56;;;;;;;7.62;2.52;;;;;;;23.16;72.49;100980.17;1682022;80;21243;-54
2023/08/10 07:52:29;;;;;;;6.90;2.75;;;;;;;23.29;72.15;100972.98;1666469;81;21291;-53
2023/08/10 07:58:06;;;;;;;4.87;2.45;;;;;;;23.41;71.85;100975.20;1710070;80;21346;-55
2023/08/10 08:01:16;;;;;;;4.40;2.62;;;;;;;23.44;71.65;100978.89;1708613;79;21256;-56
2023/08/10 08:04:24;;;;;;;7.78;2.67;;;;;;;23.50;71.51;100973.72;1695954;81;21271;-53
2023/08/10 08:07:32;;;;;;;4.37;2.50;;;;;;;23.56;71.31;100979.17;1692288;80;21260;-55
2023/08/10 08:10:01;;;;;;;6.20;2.87;;;;;;;23.64;71.16;100980.77;1693432;80;21173;-54
2023/08/10 08:13:08;;;;;;;6.70;2.45;;;;;;;23.71;70.92;100991.78;1688773;80;21468;-55
2023/08/10 08:15:38;;;;;;;5.03;2.60;;;;;;;23.75;70.70;100991.06;1697706;80;21230;-56
2023/08/10 08:18:57;;;;;;;4.60;2.35;;;;;;;23.78;70.49;100985.52;1714196;78;21822;-54
2023/08/10 08:24:34;;;;;;;7.72;2.87;;;;;;;23.89;70.22;100979.03;1712927;80;21784;-55
2023/08/10 08:30:11;;;;;;;7.90;2.77;;;;;;;24.05;69.96;100979.14;1721471;79;21667;-58
2023/08/10 08:35:50;;;;;;;3.72;2.47;;;;;;;24.11;69.45;100980.94;1704423;79;21271;-58
2023/08/10 08:43:55;;;;;;;5.70;2.50;;;;;;;24.20;68.85;100968.23;1695372;81;21260;-56
2023/08/10 08:49:33;;;;;;;6.55;2.20;;;;;;;24.33;68.61;100969.87;1693297;80;21821;-57
2023/08/10 08:57:36;;;;;;;5.20;2.60;;;;;;;24.61;68.03;100964.25;1691305;81;21773;-56
2023/08/10 09:00:44;;;;;;;5.60;2.20;;;;;;;24.66;67.83;100956.80;1707100;80;21266;-57
2023/08/10 09:06:20;;;;;;;11.65;6.65;;;;;;;24.72;67.20;100964.17;1709166;80;21634;-58
2023/08/10 09:11:59;;;;;;;3.40;1.95;;;;;;;24.78;66.88;100951.13;1714278;80;21368;-56
2023/08/10 09:15:13;;;;;;;5.67;2.50;;;;;;;24.83;66.64;100949.23;1700124;80;21236;-57
2023/08/10 09:18:19;;;;;;;4.33;2.77;;;;;;;24.96;66.56;100950.30;1698042;79;21232;-55
2023/08/10 09:21:26;;;;;;;3.20;2.00;;;;;;;25.08;66.36;100938.14;1695413;80;21355;-56
2023/08/10 09:24:31;;;;;;;3.87;2.10;;;;;;;25.16;66.03;100927.34;1693763;79;21243;-56
2023/08/10 09:32:41;;;;;;;4.35;2.40;;;;;;;25.37;65.39;100900.48;1675658;80;21710;-56
2023/08/10 09:35:48;;;;;;;5.85;2.10;;;;;;;25.45;65.23;100894.42;1677364;80;21316;-57
2023/08/10 09:38:59;;;;;;;3.87;2.10;;;;;;;25.46;64.89;100894.16;1673572;82;21860;-56
2023/08/10 09:47:06;;;;;;;4.87;2.40;;;;;;;25.49;64.25;100876.81;1703381;80;21312;-57
2023/08/10 09:52:41;;;;;;;2.80;2.10;;;;;;;25.62;64.02;100881.17;1696970;80;21786;-55
2023/08/10 09:58:16;;;;;;;7.28;3.52;;;;;;;25.71;63.47;100873.97;1721246;79;21315;-53
2023/08/10 10:03:53;;;;;;;3.75;2.10;;;;;;;25.81;63.13;100872.70;1669900;80;21259;-57
2023/08/10 10:09:30;;;;;;;4.67;2.10;;;;;;;25.99;62.72;100863.92;1706415;80;21758;-56
2023/08/10 10:17:36;;;;;;;4.75;2.00;;;;;;;26.12;61.99;100841.05;1693672;80;21825;-57
2023/08/10 10:20:45;;;;;;;3.85;2.20;;;;;;;26.22;61.84;100841.15;1696164;81;21291;-56
2023/08/10 10:23:52;;;;;;;10.10;2.37;;;;;;;26.35;61.61;100837.91;1676552;80;21228;-55
2023/08/10 10:29:22;;;;;;;3.95;1.98;;;;;;;26.63;61.24;100823.51;1676177;80;21144;-57
2023/08/10 10:34:58;;;;;;;7.80;1.98;;;;;;;26.95;60.85;100814.48;1697611;80;21259;-57
2023/08/10 10:40:34;;;;;;;3.87;2.10;;;;;;;27.13;60.35;100811.17;1706485;79;21206;-56
2023/08/10 10:43:40;;;;;;;3.90;2.00;;;;;;;27.21;59.99;100801.39;1697420;80;21772;-57
2023/08/10 10:49:21;;;;;;;5.40;1.70;;;;;;;27.17;59.37;100795.47;1697777;80;21221;-56
2023/08/10 10:57:44;;;;;;;10.05;2.58;;;;;;;27.27;58.66;100801.17;1688992;80;21279;-56
2023/08/10 11:00:51;;;;;;;5.53;2.30;;;;;;;27.28;58.36;100808.48;1705497;80;21236;-58
2023/08/10 11:04:00;;;;;;;2.77;1.70;;;;;;;27.30;58.12;100806.25;1683992;78;21724;-58
2023/08/10 11:09:34;;;;;;;3.55;2.10;;;;;;;27.36;57.55;100805.69;1707439;79;21721;-56
2023/08/10 11:15:12;;;;;;;3.87;2.02;;;;;;;27.54;57.28;100791.95;1687015;81;21660;-58
2023/08/10 11:23:16;;;;;;;4.33;2.10;;;;;;;27.72;56.54;100799.03;1705625;80;21830;-56
2023/08/10 11:28:54;;;;;;;2.50;1.67;;;;;;;27.92;56.17;100794.05;1701627;79;21212;-58
2023/08/10 11:34:31;;;;;;;7.10;2.47;;;;;;;28.02;55.59;100799.70;1679937;79;21633;-56
2023/08/10 11:42:43;;;;;;;5.90;2.08;;;;;;;27.93;54.84;100799.39;1690611;80;22153;-58
2023/08/10 11:48:22;;;;;;;6.28;2.47;;;;;;;27.86;54.38;100800.17;1720056;79;21260;-60
2023/08/10 11:53:58;;;;;;;4.28;2.10;;;;;;;27.91;53.98;100799.40;1700591;78;22178;-58
2023/08/10 11:59:39;;;;;;;2.92;1.80;;;;;;;27.98;53.71;100791.50;1692597;80;21271;-58
2023/08/10 12:02:45;;;;;;;6.00;1.90;;;;;;;27.97;53.53;100796.31;1670107;80;21800;-58
2023/08/10 12:05:56;;;;;;;3.65;1.75;;;;;;;27.95;53.36;100787.30;1680610;80;21232;-58
2023/08/10 12:09:02;;;;;;;6.65;3.60;;;;;;;28.01;53.26;100793.76;1700451;81;21304;-58
2023/08/10 12:12:07;;;;;;;6.67;2.87;;;;;;;28.08;53.12;100788.70;1720656;79;21892;-59
2023/08/10 12:15:19;;;;;;;3.65;1.85;;;;;;;28.11;52.98;100797.45;1653225;80;21260;-60
2023/08/10 12:20:56;;;;;;;5.30;2.25;;;;;;;28.10;51.90;100786.47;1712619;79;21214;-58
2023/08/10 12:26:32;;;;;;;6.35;1.95;;;;;;;27.99;52.11;100776.33;1688251;79;21224;-59
2023/08/10 12:32:07;;;;;;;3.52;1.77;;;;;;;27.89;51.98;100781.94;1717705;80;21289;-57
2023/08/10 12:35:14;;;;;;;4.70;2.30;;;;;;;27.93;51.90;100768.98;1691313;79;21302;-60
2023/08/10 12:40:48;;;;;;;5.62;1.90;;;;;;;27.98;51.58;100762.80;1693742;80;21232;-58
2023/08/10 12:48:54;;;;;;;8.20;2.42;;;;;;;27.90;51.30;100742.80;1694640;79;21212;-56
2023/08/10 12:54:29;;;;;;;11.12;2.80;;;;;;;27.80;50.55;100739.39;1650973;82;21233;-59
2023/08/10 13:00:09;;;;;;;7.45;2.20;;;;;;;28.05;51.03;100728.75;1686513;78;21648;-59
2023/08/10 13:05:53;;;;;;;4.60;1.92;;;;;;;28.47;50.93;100710.92;1714179;80;21212;-59
2023/08/10 13:09:02;;;;;;;3.52;1.80;;;;;;;28.47;50.93;100710.92;1703966;80;22024;-61
2023/08/10 13:12:08;;;;;;;4.37;1.65;;;;;;;28.53;50.74;100706.44;1659395;81;21843;-61
2023/08/10 13:15:16;;;;;;;4.08;1.80;;;;;;;28.59;50.65;100702.47;1681703;81;21406;-58
2023/08/10 13:20:52;;;;;;;5.80;2.05;;;;;;;28.47;50.38;100692.06;1692298;80;21271;-57
2023/08/10 13:23:58;;;;;;;2.35;1.75;;;;;;;28.47;50.38;100692.06;1693298;80;21284;-58
2023/08/10 13:29:33;;;;;;;5.78;1.85;;;;;;;28.29;49.94;100674.34;1707589;80;21327;-57
2023/08/10 13:32:39;;;;;;;4.97;2.10;;;;;;;28.21;49.72;100670.70;1693853;79;21315;-59
2023/08/10 13:35:38;;;;;;;7.83;2.00;;;;;;;28.12;49.68;100674.37;1716418;79;21985;-58
2023/08/10 13:41:15;;;;;;;5.80;2.08;;;;;;;28.10;49.53;100674.66;1682313;81;21639;-58
2023/08/10 13:46:50;;;;;;;5.53;2.02;;;;;;;28.04;49.48;100676.36;1698515;80;21299;-56
2023/08/10 13:52:26;;;;;;;4.28;2.50;;;;;;;27.86;49.46;100682.83;1704420;80;21891;-57
2023/08/10 13:58:02;;;;;;;5.50;2.12;;;;;;;27.74;49.42;100678.05;1708074;80;21216;-59
2023/08/10 14:01:07;;;;;;;5.90;2.25;;;;;;;27.69;49.37;100699.15;1652628;81;21239;-60
2023/08/10 14:06:39;;;;;;;4.87;1.70;;;;;;;27.53;49.42;100700.80;1716639;79;21204;-58
2023/08/10 14:09:46;;;;;;;4.45;2.10;;;;;;;27.45;49.39;100693.77;1712864;80;21239;-58
2023/08/10 14:15:22;;;;;;;6.28;2.30;;;;;;;27.25;49.53;100686.69;1665116;80;21267;-57
2023/08/10 14:20:57;;;;;;;3.08;2.10;;;;;;;27.20;49.65;100670.34;1681901;80;21772;-57
2023/08/10 14:26:33;;;;;;;5.50;1.98;;;;;;;27.25;49.82;100659.97;1679293;81;21748;-58
2023/08/10 14:32:08;;;;;;;8.30;2.67;;;;;;;27.60;50.02;100645.12;1672161;81;21273;-57
2023/08/10 14:37:44;;;;;;;3.85;2.58;;;;;;;27.63;49.86;100626.27;1680016;80;21807;-57
2023/08/10 14:43:19;;;;;;;4.15;2.72;;;;;;;27.44;49.73;100611.08;1709470;80;21779;-57
2023/08/10 14:46:24;;;;;;;6.85;2.30;;;;;;;27.34;49.79;100621.77;1696888;79;21226;-57
2023/08/10 14:54:30;;;;;;;4.08;1.90;;;;;;;27.05;49.73;100633.20;1689118;80;21770;-59
2023/08/10 15:00:06;;;;;;;5.97;2.27;;;;;;;26.73;49.87;100647.17;1698622;79;21286;-56
2023/08/10 15:05:42;;;;;;;6.95;2.20;;;;;;;26.46;50.04;100683.81;1704689;79;21607;-57
2023/08/10 15:13:50;;;;;;;5.37;2.45;;;;;;;26.18;50.32;100725.74;1710409;80;21221;-55
2023/08/10 15:19:27;;;;;;;10.50;3.50;;;;;;;25.87;50.50;100734.16;1715994;79;21296;-58
2023/08/10 15:22:33;;;;;;;11.33;4.03;;;;;;;25.68;50.56;100739.88;1699672;79;21261;-60
2023/08/10 15:28:08;;;;;;;13.60;4.33;;;;;;;24.88;50.52;100681.80;1713130;80;21406;-60
2023/08/10 15:33:43;;;;;;;11.40;5.20;;;;;;;24.24;51.45;100679.81;1711046;79;21196;-54
2023/08/10 15:36:49;;;;;;;14.40;4.90;;;;;;;24.12;52.04;100695.01;1705112;80;21234;-56
2023/08/10 15:42:24;;;;;;;8.78;3.85;;;;;;;23.80;53.08;100683.53;1698303;81;21286;-57
2023/08/10 15:47:59;;;;;;;6.72;2.80;;;;;;;23.52;53.99;100679.44;1708886;81;21241;-57
2023/08/10 15:53:35;;;;;;;7.03;3.30;;;;;;;23.30;54.91;100679.33;1710412;79;21255;-55
2023/08/10 15:59:11;;;;;;;6.60;3.60;;;;;;;23.14;55.59;100681.51;1713723;79;21407;-57
2023/08/10 16:04:49;;;;;;;9.05;3.70;;;;;;;23.05;56.33;100686.35;1708565;81;21252;-57
2023/08/10 16:07:55;;;;;;;7.42;2.87;;;;;;;23.00;56.63;100697.42;1695142;79;21825;-56
2023/08/10 16:11:03;;;;;;;5.70;3.45;;;;;;;22.94;56.99;100719.36;1697325;82;21217;-55
2023/08/10 16:14:09;;;;;;;5.95;3.10;;;;;;;22.87;57.29;100713.92;1672978;80;21802;-57
2023/08/10 16:17:16;;;;;;;5.20;3.22;;;;;;;22.80;57.65;100710.41;1674990;79;21258;-56
2023/08/10 16:20:22;;;;;;;13.15;3.67;;;;;;;22.76;57.95;100709.76;1662504;83;21253;-56
2023/08/10 16:23:27;;;;;;;8.18;4.10;;;;;;;22.70;58.23;100709.36;1687668;81;21946;-59
2023/08/10 16:26:35;;;;;;;8.73;3.30;;;;;;;22.63;58.50;100713.68;1691652;81;21509;-57
2023/08/10 16:32:10;;;;;;;9.73;3.27;;;;;;;22.46;59.00;100687.61;1698383;79;21702;-57
2023/08/10 16:37:48;;;;;;;4.95;3.00;;;;;;;22.31;59.45;100678.88;1702810;81;21303;-59
2023/08/10 16:43:24;;;;;;;8.00;3.02;;;;;;;22.16;59.92;100676.63;1704565;80;21254;-57
2023/08/10 16:48:59;;;;;;;6.42;3.90;;;;;;;22.04;60.41;100689.70;1702532;80;21881;-57
2023/08/10 16:54:37;;;;;;;5.62;3.40;;;;;;;21.92;60.88;100694.98;1704472;79;21733;-57
2023/08/10 17:00:17;;;;;;;4.40;2.47;;;;;;;21.86;61.32;100687.59;1695506;80;21405;-56
2023/08/10 17:05:53;;;;;;;6.22;3.00;;;;;;;21.81;61.73;100700.01;1686231;82;21252;-59
2023/08/10 17:11:27;;;;;;;6.95;3.08;;;;;;;21.81;62.20;100702.27;1706035;80;21918;-56
2023/08/10 17:17:03;;;;;;;6.60;3.08;;;;;;;21.81;62.53;100719.52;1696308;80;21425;-56
2023/08/10 17:25:08;;;;;;;9.08;4.12;;;;;;;21.78;62.99;100759.03;1706907;80;21280;-57
2023/08/10 17:30:45;;;;;;;9.18;4.17;;;;;;;21.78;63.35;100779.40;1694986;80;21244;-57
2023/08/10 17:36:22;;;;;;;9.68;4.20;;;;;;;21.76;63.65;100744.48;1706517;79;21454;-57
2023/08/10 17:41:59;;;;;;;5.83;3.35;;;;;;;21.58;63.78;100702.18;1700487;81;21855;-56
2023/08/10 17:47:37;;;;;;;8.18;3.80;;;;;;;21.40;64.19;100725.96;1703890;81;21295;-57
2023/08/10 17:53:11;;;;;;;9.18;4.15;;;;;;;21.39;64.76;100715.06;1710156;81;21590;-57
2023/08/10 17:58:47;;;;;;;11.63;4.45;;;;;;;21.30;64.98;100687.22;1704782;79;21419;-57
2023/08/10 18:04:24;;;;;;;7.28;4.35;;;;;;;21.18;65.34;100671.03;1649356;83;21251;-57
2023/08/10 18:10:01;;;;;;;7.37;4.00;;;;;;;21.09;65.64;100703.92;1679966;80;22005;-59
2023/08/10 18:15:36;;;;;;;10.82;4.53;;;;;;;21.00;66.02;100723.44;1665881;82;21779;-58
2023/08/10 18:21:14;;;;;;;7.95;4.45;;;;;;;20.94;66.35;100727.67;1663139;81;21271;-57
2023/08/10 18:24:21;;;;;;;8.15;4.35;;;;;;;20.91;66.53;100730.39;1715134;80;21395;-59
2023/08/10 18:29:58;;;;;;;9.85;4.30;;;;;;;20.89;67.03;100730.30;1679242;80;21791;-56
2023/08/10 18:35:33;;;;;;;8.23;4.85;;;;;;;20.83;67.32;100734.03;1708870;80;21371;-55
2023/08/10 18:41:10;;;;;;;8.58;4.78;;;;;;;20.76;67.71;100748.88;1700573;79;21277;-56
2023/08/10 18:49:16;;;;;;;8.70;5.05;;;;;;;20.80;68.18;100729.80;1704450;78;21434;-56
2023/08/10 18:52:24;;;;;;;6.87;4.53;;;;;;;20.79;68.23;100722.51;1706708;79;21431;-56
2023/08/10 18:57:58;;;;;;;6.90;5.10;;;;;;;20.78;68.66;100704.98;1660355;81;21777;-55
2023/08/10 19:01:05;;;;;;;8.28;4.83;;;;;;;20.79;68.84;100699.71;1702287;80;21205;-55
2023/08/10 19:09:09;;;;;;;5.72;5.00;;;;;;;20.76;69.23;100710.45;1644431;82;21686;-58
2023/08/10 19:14:47;;;;;;;6.90;5.47;;;;;;;20.76;69.47;100699.33;1657975;80;21678;-57
2023/08/10 19:17:52;;;;;;;8.38;5.22;;;;;;;20.74;69.53;100692.60;1698610;80;21303;-56
2023/08/10 19:20:51;;;;;;;7.65;5.50;;;;;;;20.73;69.68;100685.88;1697376;79;21341;-57
2023/08/10 19:23:57;;;;;;;8.95;4.90;;;;;;;20.74;69.88;100695.92;1702659;80;21249;-56
2023/08/10 19:32:02;;;;;;;10.85;5.50;;;;;;;20.78;70.27;100701.34;1706292;81;21221;-57
2023/08/10 19:35:10;;;;;;;12.33;5.75;;;;;;;20.75;70.31;100694.33;1707767;80;21888;-57
2023/08/10 19:43:15;;;;;;;7.75;5.03;;;;;;;20.63;70.55;100675.84;1676570;79;21298;-56
2023/08/10 19:48:52;;;;;;;6.95;5.47;;;;;;;20.56;70.77;100670.92;1710202;82;21430;-58
2023/08/10 19:54:28;;;;;;;7.60;4.90;;;;;;;20.50;70.98;100675.47;1652449;82;21299;-57
2023/08/10 19:57:35;;;;;;;7.03;5.03;;;;;;;20.48;71.12;100672.62;1647599;82;21315;-58
2023/08/10 20:03:11;;;;;;;5.47;4.47;;;;;;;20.45;71.42;100657.80;1670627;80;21644;-57
2023/08/10 20:08:46;;;;;;;10.50;5.00;;;;;;;20.40;71.57;100636.78;1692645;80;21237;-57
2023/08/10 20:14:23;;;;;;;6.12;4.83;;;;;;;20.39;71.96;100642.88;1705821;80;21277;-58
2023/08/10 20:19:59;;;;;;;6.03;4.37;;;;;;;20.37;72.10;100669.23;1676560;80;21463;-56
2023/08/10 20:25:35;;;;;;;6.15;5.00;;;;;;;20.30;72.22;100654.55;1668153;80;21265;-57
2023/08/10 20:28:41;;;;;;;6.90;5.55;;;;;;;20.27;72.33;100650.31;1669365;80;21243;-56
2023/08/10 20:34:14;;;;;;;7.60;5.33;;;;;;;20.25;72.67;100653.00;1670698;82;21221;-56
2023/08/10 20:37:20;;;;;;;6.50;4.87;;;;;;;20.27;72.89;100651.70;1694079;81;21219;-56
2023/08/10 20:45:25;;;;;;;7.80;5.87;;;;;;;20.29;73.23;100656.50;1700748;80;21285;-58
2023/08/10 20:51:03;;;;;;;7.78;5.60;;;;;;;20.34;73.52;100654.41;1705891;80;21773;-57
2023/08/10 20:59:08;;;;;;;8.00;5.72;;;;;;;20.42;73.87;100706.94;1702568;79;21284;-57
2023/08/10 21:04:43;;;;;;;7.85;6.35;;;;;;;20.44;74.04;100718.13;1707310;80;21356;-58
2023/08/10 21:07:49;;;;;;;9.00;6.25;;;;;;;20.46;74.17;100735.45;1707181;79;21285;-58
2023/08/10 21:13:25;;;;;;;7.58;5.85;;;;;;;20.51;74.48;100723.09;1701305;80;21381;-57
2023/08/10 21:19:01;;;;;;;9.23;5.95;;;;;;;20.49;74.34;100646.50;1705284;81;21810;-56
2023/08/10 21:27:08;;;;;;;13.15;6.55;;;;;;;20.32;74.63;100679.67;1696047;80;21230;-55
2023/08/10 21:35:15;;;;;;;7.45;5.50;;;;;;;20.33;75.18;100688.31;1692814;80;21767;-57
2023/08/10 21:40:50;;;;;;;6.62;5.20;;;;;;;20.33;75.38;100661.03;1698760;81;21765;-56
2023/08/10 21:46:25;;;;;;;7.53;5.20;;;;;;;20.31;75.58;100652.09;1695515;81;21281;-56
2023/08/10 21:52:02;;;;;;;7.20;4.92;;;;;;;20.28;75.65;100665.91;1695566;81;21233;-57
2023/08/10 21:57:38;;;;;;;7.90;5.28;;;;;;;20.23;75.80;100676.86;1676973;80;21363;-56
2023/08/10 22:03:15;;;;;;;6.17;5.15;;;;;;;20.23;76.05;100662.14;1702367;81;21995;-57
2023/08/10 22:06:20;;;;;;;7.12;5.67;;;;;;;20.24;76.18;100669.39;1694269;81;22103;-56
2023/08/10 22:11:52;;;;;;;7.50;5.22;;;;;;;20.25;76.37;100673.85;1704297;81;21910;-57
2023/08/10 22:17:27;;;;;;;8.43;5.20;;;;;;;20.21;76.42;100629.53;1711624;80;21216;-57
2023/08/10 22:20:35;;;;;;;8.10;5.15;;;;;;;20.16;76.37;100636.33;1705015;82;21383;-55
2023/08/10 22:26:12;;;;;;;10.78;5.92;;;;;;;20.09;76.64;100595.23;1698003;80;21373;-55
2023/08/10 22:31:47;;;;;;;7.75;5.37;;;;;;;20.02;76.80;100595.31;1697287;80;21822;-57
2023/08/10 22:37:23;;;;;;;6.22;4.70;;;;;;;20.02;77.06;100591.67;1700634;81;21380;-56
2023/08/10 22:45:28;;;;;;;6.05;5.42;;;;;;;19.98;77.36;100597.41;1699162;80;21345;-57
2023/08/10 22:51:03;;;;;;;6.92;5.08;;;;;;;19.99;77.56;100633.30;1701563;80;21380;-57
2023/08/10 22:56:38;;;;;;;8.55;5.72;;;;;;;19.98;77.65;100626.02;1708106;80;21383;-56
2023/08/10 23:02:14;;;;;;;8.08;5.55;;;;;;;19.95;77.71;100622.31;1706012;80;21244;-57